Center City, Minnesota
Current Conditions -  °F | °C
As of 3:35 PM on Monday 24 Nov 2014 (Local Time) from KOEO Reporting Station
Light Snow Light Snow  
Wind Chill:   Ceiling: 1500
Heat Index: 22°   Visibility: 10mi
Dew Point: 20°   Wind: 14mph
Humidity: 91%   Direction: 300°WNW
Pressure: 29.58"   Gusts: 25mph
Location:  45.39°N, 92.82°W
Report Text: KOEO 242135Z AUTO 30012G22KT 10SM -SN BKN015 OVC023 M05/M07 A2958 RMK AO2 T10551067
Loading
Personal Weather Stations






























Interactive Weather Map New forecast layout! Learn more

10-Day Weather Forecast

Advertisements
Track Severe Weather on mobile